| time (UTC) | temp C | wind direction | speed KPH | gust KPH | rain 1hr cm | rain 24hr cm | rain mn cm | humidity % | barometer mb |
| 20260509090059 | 2 | 0 | 0.0 | 0.0 | 0.00 | 0.13 | 0.00 | 92 | 1007.9 |
| 20260509084605 | 1 | 0 | 0.0 | 0.0 | 0.00 | 0.15 | 0.00 | 92 | 1007.8 |
| 20260509083057 | 1 | 0 | 0.0 | 0.0 | 0.00 | 0.15 | 0.00 | 91 | 1008.1 |
| 20260509081557 | 1 | 0 | 0.0 | 0.0 | 0.00 | 0.15 | 0.00 | 91 | 1008.2 |
| 20260509080055 | 1 | 0 | 0.0 | 0.0 | 0.00 | 0.15 | 0.00 | 91 | 1008.4 |
| 20260509074603 | 1 | 143 | 0.0 | 1.6 | 0.00 | 0.15 | 0.00 | 91 | 1008.5 |
| 20260509073059 | 1 | 0 | 0.0 | 0.0 | 0.00 | 0.15 | 0.00 | 90 | 1008.5 |
| 20260509071600 | 1 | 0 | 0.0 | 1.6 | 0.00 | 0.15 | 0.00 | 90 | 1008.7 |
| 20260509070105 | 1 | 0 | 0.0 | 0.0 | 0.00 | 0.15 | 0.00 | 90 | 1008.8 |
| 20260509064603 | 1 | 0 | 0.0 | 0.0 | 0.00 | 0.15 | 0.00 | 90 | 1008.8 |
| 20260509063113 | 1 | 0 | 0.0 | 0.0 | 0.00 | 0.15 | 0.00 | 89 | 1009.2 |
| 20260509061619 | 2 | 0 | 0.0 | 1.6 | 0.00 | 0.15 | 0.00 | 90 | 1009.1 |
| 20260509060112 | 1 | 143 | 0.0 | 1.6 | 0.00 | 0.15 | 0.00 | 89 | 1009.4 |
| 20260509054556 | 1 | 0 | 0.0 | 1.6 | 0.00 | 0.15 | 0.00 | 88 | 1009.4 |
| 20260509053056 | 1 | 0 | 0.0 | 0.0 | 0.00 | 0.15 | 0.00 | 88 | 1009.6 |
| 20260509051559 | 1 | 0 | 0.0 | 0.0 | 0.00 | 0.15 | 0.00 | 88 | 1009.8 |
| 20260509050056 | 1 | 0 | 0.0 | 0.0 | 0.00 | 0.15 | 0.00 | 87 | 1009.8 |
| 20260509044553 | 1 | 0 | 0.0 | 0.0 | 0.00 | 0.20 | 0.00 | 87 | 1010.0 |
| 20260509043052 | 1 | 0 | 0.0 | 0.0 | 0.00 | 0.20 | 0.00 | 86 | 1010.2 |
| 20260509041601 | 2 | 0 | 0.0 | 0.0 | 0.00 | 0.20 | 0.00 | 85 | 1010.2 |
| 20260509040056 | 2 | 0 | 0.0 | 0.0 | 0.00 | 0.20 | 0.00 | 84 | 1010.2 |
| 20260509034555 | 2 | 0 | 0.0 | 0.0 | 0.00 | 0.20 | 0.20 | 84 | 1010.3 |
| 20260509033058 | 2 | 0 | 0.0 | 0.0 | 0.00 | 0.20 | 0.20 | 83 | 1010.1 |
| 20260509031601 | 2 | 0 | 0.0 | 0.0 | 0.00 | 0.20 | 0.20 | 82 | 1010.2 |
| 20260509030058 | 3 | 0 | 0.0 | 0.0 | 0.00 | 0.20 | 0.20 | 80 | 1010.3 |
| 20260509024553 | 3 | 0 | 0.0 | 0.0 | 0.00 | 0.20 | 0.20 | 79 | 1010.3 |
| 20260509023100 | 3 | 0 | 0.0 | 0.0 | 0.00 | 0.20 | 0.20 | 78 | 1010.4 |
| 20260509021557 | 3 | 0 | 0.0 | 0.0 | 0.00 | 0.20 | 0.20 | 76 | 1010.3 |
| 20260509020058 | 4 | 0 | 0.0 | 0.0 | 0.00 | 0.20 | 0.20 | 73 | 1010.3 |
| 20260509014556 | 5 | 0 | 0.0 | 0.0 | 0.00 | 0.20 | 0.20 | 71 | 1010.3 |
| 20260509013100 | 6 | 0 | 0.0 | 0.0 | 0.00 | 0.20 | 0.20 | 70 | 1010.2 |
| 20260509011555 | 6 | 0 | 0.0 | 0.0 | 0.00 | 0.20 | 0.20 | 66 | 1010.2 |
| 20260509010056 | 7 | 0 | 0.0 | 1.6 | 0.00 | 0.20 | 0.20 | 64 | 1009.9 |
| 20260509004606 | 7 | 0 | 0.0 | 1.6 | 0.00 | 0.20 | 0.20 | 60 | 1009.7 |
| 20260509003056 | 9 | 0 | 0.0 | 0.0 | 0.00 | 0.20 | 0.20 | 56 | 1009.7 |
| 20260509001554 | 11 | 0 | 0.0 | 0.0 | 0.00 | 0.20 | 0.20 | 50 | 1009.6 |
| 20260509000054 | 12 | 0 | 0.0 | 0.0 | 0.00 | 0.20 | 0.20 | 48 | 1009.5 |
| 20260508234557 | 13 | 0 | 0.0 | 0.0 | 0.00 | 0.20 | 0.20 | 47 | 1009.4 |
| 20260508233057 | 13 | 0 | 0.0 | 1.6 | 0.00 | 0.20 | 0.20 | 46 | 1009.3 |
| 20260508231600 | 14 | 0 | 0.0 | 3.2 | 0.00 | 0.20 | 0.20 | 44 | 1009.3 |
| 20260508230100 | 14 | 0 | 0.0 | 3.2 | 0.00 | 0.20 | 0.20 | 46 | 1009.4 |
| 20260508224558 | 14 | 0 | 0.0 | 4.8 | 0.00 | 0.20 | 0.20 | 44 | 1009.5 |
| 20260508223055 | 14 | 143 | 1.6 | 4.8 | 0.00 | 0.20 | 0.20 | 43 | 1009.3 |
| 20260508221559 | 15 | 115 | 3.2 | 6.4 | 0.00 | 0.20 | 0.20 | 42 | 1009.4 |
| 20260508220059 | 14 | 167 | 1.6 | 9.7 | 0.00 | 0.20 | 0.20 | 44 | 1009.4 |
| 20260508214557 | 14 | 176 | 3.2 | 8.0 | 0.00 | 0.20 | 0.20 | 46 | 1009.5 |
| 20260508213058 | 13 | 155 | 4.8 | 11.3 | 0.00 | 0.20 | 0.20 | 41 | 1009.6 |
| 20260508211557 | 14 | 105 | 3.2 | 9.7 | 0.00 | 0.20 | 0.20 | 48 | 1009.6 |
| 20260508210055 | 13 | 265 | 1.6 | 8.0 | 0.00 | 0.20 | 0.20 | 48 | 1009.6 |
| 20260508204554 | 13 | 105 | 3.2 | 9.7 | 0.00 | 0.20 | 0.20 | 45 | 1009.7 |
| 20260508203105 | 13 | 71 | 9.7 | 19.3 | 0.00 | 0.20 | 0.20 | 40 | 1009.9 |
| 20260508201603 | 13 | 39 | 6.4 | 12.9 | 0.00 | 0.20 | 0.20 | 40 | 1010.0 |
| 20260508200057 | 13 | 32 | 11.3 | 17.7 | 0.00 | 0.20 | 0.20 | 40 | 1010.1 |
| 20260508194554 | 13 | 117 | 9.7 | 17.7 | 0.00 | 0.20 | 0.20 | 39 | 1010.3 |
| 20260508193056 | 13 | 53 | 8.0 | 20.9 | 0.00 | 0.20 | 0.20 | 41 | 1010.5 |
| 20260508191558 | 13 | 342 | 3.2 | 17.7 | 0.00 | 0.20 | 0.20 | 50 | 1010.6 |
| 20260508190057 | 12 | 82 | 8.0 | 14.5 | 0.00 | 0.20 | 0.20 | 45 | 1010.8 |
| 20260508184556 | 12 | 94 | 6.4 | 11.3 | 0.00 | 0.20 | 0.20 | 49 | 1010.8 |
| 20260508183055 | 12 | 51 | 8.0 | 14.5 | 0.00 | 0.20 | 0.20 | 49 | 1010.9 |
| 20260508181608 | 11 | 81 | 9.7 | 22.5 | 0.00 | 0.20 | 0.20 | 50 | 1010.8 |
| 20260508180057 | 11 | 108 | 9.7 | 19.3 | 0.00 | 0.20 | 0.20 | 51 | 1011.1 |
| 20260508174608 | 11 | 75 | 9.7 | 20.9 | 0.00 | 0.20 | 0.20 | 54 | 1011.1 |
| 20260508173056 | 11 | 97 | 6.4 | 14.5 | 0.00 | 0.20 | 0.20 | 58 | 1011.4 |
| 20260508171557 | 10 | 50 | 4.8 | 12.9 | 0.00 | 0.20 | 0.20 | 60 | 1011.5 |
| 20260508170057 | 10 | 91 | 4.8 | 12.9 | 0.00 | 0.20 | 0.20 | 62 | 1011.5 |
| 20260508164600 | 10 | 109 | 8.0 | 14.5 | 0.00 | 0.20 | 0.20 | 65 | 1011.7 |
| 20260508163056 | 10 | 44 | 6.4 | 12.9 | 0.00 | 0.20 | 0.20 | 66 | 1011.8 |
| 20260508161557 | 8 | 117 | 8.0 | 14.5 | 0.00 | 0.20 | 0.20 | 67 | 1012.0 |
| 20260508160054 | 9 | 103 | 8.0 | 19.3 | 0.00 | 0.20 | 0.20 | 71 | 1012.0 |
| 20260508154603 | 9 | 46 | 9.7 | 22.5 | 0.00 | 0.20 | 0.20 | 69 | 1012.0 |
| 20260508153056 | 8 | 41 | 8.0 | 17.7 | 0.00 | 0.20 | 0.20 | 75 | 1012.0 |
| 20260508151556 | 8 | 73 | 8.0 | 14.5 | 0.00 | 0.20 | 0.20 | 74 | 1011.9 |
| 20260508150054 | 7 | 33 | 6.4 | 17.7 | 0.00 | 0.20 | 0.20 | 82 | 1011.6 |
| 20260508144555 | 7 | 40 | 8.0 | 19.3 | 0.00 | 0.20 | 0.20 | 87 | 1011.5 |
| 20260508143102 | 6 | 46 | 8.0 | 14.5 | 0.00 | 0.20 | 0.20 | 89 | 1011.8 |
| 20260508141616 | 5 | 85 | 6.4 | 12.9 | 0.03 | 0.20 | 0.20 | 89 | 1012.0 |
| 20260508140056 | 5 | 81 | 3.2 | 9.7 | 0.05 | 0.20 | 0.20 | 91 | 1012.1 |
| 20260508134618 | 5 | 111 | 3.2 | 9.7 | 0.08 | 0.20 | 0.20 | 91 | 1011.9 |
| 20260508133104 | 5 | 53 | 3.2 | 9.7 | 0.13 | 0.20 | 0.20 | 92 | 1012.0 |
| 20260508131558 | 5 | 99 | 3.2 | 8.0 | 0.10 | 0.18 | 0.18 | 91 | 1012.0 |
| 20260508130053 | 5 | 96 | 3.2 | 12.9 | 0.08 | 0.15 | 0.15 | 92 | 1012.0 |
| 20260508124600 | 4 | 100 | 6.4 | 24.1 | 0.05 | 0.13 | 0.13 | 92 | 1011.8 |
| 20260508123057 | 5 | 81 | 4.8 | 8.0 | 0.00 | 0.08 | 0.08 | 94 | 1011.5 |
| 20260508121602 | 4 | 74 | 0.0 | 1.6 | 0.00 | 0.08 | 0.08 | 94 | 1011.3 |
| 20260508120056 | 4 | 0 | 0.0 | 1.6 | 0.00 | 0.08 | 0.08 | 94 | 1011.0 |
| 20260508114555 | 4 | 74 | 0.0 | 1.6 | 0.00 | 0.08 | 0.08 | 94 | 1010.9 |
| 20260508113107 | 3 | 0 | 0.0 | 0.0 | 0.00 | 0.08 | 0.08 | 94 | 1010.9 |
| 20260508111603 | 3 | 74 | 0.0 | 1.6 | 0.00 | 0.08 | 0.08 | 93 | 1010.7 |
| 20260508110059 | 3 | 0 | 0.0 | 0.0 | 0.00 | 0.08 | 0.08 | 93 | 1010.6 |
| 20260508104559 | 3 | 74 | 0.0 | 1.6 | 0.00 | 0.08 | 0.08 | 93 | 1010.4 |
| 20260508103102 | 2 | 0 | 0.0 | 1.6 | 0.00 | 0.08 | 0.08 | 93 | 1010.5 |
| 20260508101557 | 2 | 0 | 0.0 | 0.0 | 0.00 | 0.08 | 0.08 | 92 | 1010.8 |
| 20260508100057 | 2 | 0 | 0.0 | 1.6 | 0.00 | 0.08 | 0.08 | 93 | 1010.6 |
| 20260508094556 | 2 | 0 | 0.0 | 1.6 | 0.00 | 0.08 | 0.08 | 92 | 1010.9 |
| 20260508093057 | 2 | 0 | 0.0 | 0.0 | 0.03 | 0.08 | 0.08 | 92 | 1010.9 |
| 20260508091557 | 2 | 0 | 0.0 | 1.6 | 0.03 | 0.08 | 0.08 | 93 | 1011.0 |